sensor_id;sensor_type;location;lat;lon;timestamp;temperature;humidity
68215;DHT22;55036;52.138;5.236;2023-02-01T00:01:08;6.70;82.80
68215;DHT22;55036;52.138;5.236;2023-02-01T00:03:35;6.70;82.90
68215;DHT22;55036;52.138;5.236;2023-02-01T00:06:02;6.80;82.80
68215;DHT22;55036;52.138;5.236;2023-02-01T00:08:29;6.80;82.60
68215;DHT22;55036;52.138;5.236;2023-02-01T00:13:31;6.80;83.30
68215;DHT22;55036;52.138;5.236;2023-02-01T00:16:10;6.80;83.20
68215;DHT22;55036;52.138;5.236;2023-02-01T00:18:38;6.90;83.20
68215;DHT22;55036;52.138;5.236;2023-02-01T00:21:05;6.90;83.40
68215;DHT22;55036;52.138;5.236;2023-02-01T00:23:33;6.90;83.30
68215;DHT22;55036;52.138;5.236;2023-02-01T00:26:05;7.00;83.30
68215;DHT22;55036;52.138;5.236;2023-02-01T00:28:32;7.00;83.10
68215;DHT22;55036;52.138;5.236;2023-02-01T00:31:01;7.10;82.80
68215;DHT22;55036;52.138;5.236;2023-02-01T00:33:29;7.10;82.60
68215;DHT22;55036;52.138;5.236;2023-02-01T00:36:04;7.10;82.50
68215;DHT22;55036;52.138;5.236;2023-02-01T00:38:33;7.10;82.80
68215;DHT22;55036;52.138;5.236;2023-02-01T00:43:38;7.10;83.00
68215;DHT22;55036;52.138;5.236;2023-02-01T00:46:05;7.20;83.20
68215;DHT22;55036;52.138;5.236;2023-02-01T00:48:32;7.20;83.10
68215;DHT22;55036;52.138;5.236;2023-02-01T00:51:07;7.30;82.60
68215;DHT22;55036;52.138;5.236;2023-02-01T00:53:34;7.30;82.50
68215;DHT22;55036;52.138;5.236;2023-02-01T00:56:01;7.40;81.70
68215;DHT22;55036;52.138;5.236;2023-02-01T00:58:28;7.40;82.20
68215;DHT22;55036;52.138;5.236;2023-02-01T01:01:13;7.40;82.10
68215;DHT22;55036;52.138;5.236;2023-02-01T01:03:44;7.50;82.10
68215;DHT22;55036;52.138;5.236;2023-02-01T01:06:12;7.60;82.00
68215;DHT22;55036;52.138;5.236;2023-02-01T01:08:41;7.60;81.70
68215;DHT22;55036;52.138;5.236;2023-02-01T01:11:17;7.60;81.60
68215;DHT22;55036;52.138;5.236;2023-02-01T01:13:47;7.60;82.20
68215;DHT22;55036;52.138;5.236;2023-02-01T01:16:14;7.50;81.40
68215;DHT22;55036;52.138;5.236;2023-02-01T01:18:41;7.50;81.10
68215;DHT22;55036;52.138;5.236;2023-02-01T01:21:09;7.50;81.10
68215;DHT22;55036;52.138;5.236;2023-02-01T01:23:38;7.50;80.30
68215;DHT22;55036;52.138;5.236;2023-02-01T01:26:06;7.50;80.60
68215;DHT22;55036;52.138;5.236;2023-02-01T01:28:33;7.50;80.10
68215;DHT22;55036;52.138;5.236;2023-02-01T01:31:00;7.50;80.40
68215;DHT22;55036;52.138;5.236;2023-02-01T01:33:27;7.50;80.10
68215;DHT22;55036;52.138;5.236;2023-02-01T01:35:54;7.50;79.60
68215;DHT22;55036;52.138;5.236;2023-02-01T01:38:21;7.50;79.70
68215;DHT22;55036;52.138;5.236;2023-02-01T01:40:48;7.50;80.20
68215;DHT22;55036;52.138;5.236;2023-02-01T01:43:19;7.50;79.90
68215;DHT22;55036;52.138;5.236;2023-02-01T01:45:49;7.60;78.90
68215;DHT22;55036;52.138;5.236;2023-02-01T01:48:27;7.60;79.80
68215;DHT22;55036;52.138;5.236;2023-02-01T01:51:01;7.70;79.80
68215;DHT22;55036;52.138;5.236;2023-02-01T01:53:43;7.70;79.10
68215;DHT22;55036;52.138;5.236;2023-02-01T01:56:12;7.60;79.60
68215;DHT22;55036;52.138;5.236;2023-02-01T01:58:39;7.60;80.00
68215;DHT22;55036;52.138;5.236;2023-02-01T02:01:06;7.60;79.90
68215;DHT22;55036;52.138;5.236;2023-02-01T02:03:37;7.70;79.40
68215;DHT22;55036;52.138;5.236;2023-02-01T02:06:05;7.70;79.90
68215;DHT22;55036;52.138;5.236;2023-02-01T02:08:35;7.80;79.90
68215;DHT22;55036;52.138;5.236;2023-02-01T02:11:01;7.70;79.90
68215;DHT22;55036;52.138;5.236;2023-02-01T02:13:32;7.80;80.10
68215;DHT22;55036;52.138;5.236;2023-02-01T02:16:34;7.70;80.50
68215;DHT22;55036;52.138;5.236;2023-02-01T02:24:53;7.90;80.90
68215;DHT22;55036;52.138;5.236;2023-02-01T02:27:37;7.90;80.80
68215;DHT22;55036;52.138;5.236;2023-02-01T02:30:36;7.90;80.70
68215;DHT22;55036;52.138;5.236;2023-02-01T02:36:08;7.90;80.70
68215;DHT22;55036;52.138;5.236;2023-02-01T02:38:47;7.90;80.60
68215;DHT22;55036;52.138;5.236;2023-02-01T02:45:06;7.90;80.60
68215;DHT22;55036;52.138;5.236;2023-02-01T02:53:34;7.90;80.90
68215;DHT22;55036;52.138;5.236;2023-02-01T02:56:22;8.00;80.70
68215;DHT22;55036;52.138;5.236;2023-02-01T02:59:09;8.00;80.30
68215;DHT22;55036;52.138;5.236;2023-02-01T03:01:54;8.00;80.40
68215;DHT22;55036;52.138;5.236;2023-02-01T03:04:40;8.00;80.40
68215;DHT22;55036;52.138;5.236;2023-02-01T03:10:13;7.90;79.90
68215;DHT22;55036;52.138;5.236;2023-02-01T03:12:43;7.90;80.60
68215;DHT22;55036;52.138;5.236;2023-02-01T03:15:37;7.90;80.30
68215;DHT22;55036;52.138;5.236;2023-02-01T03:18:16;7.90;80.30
68215;DHT22;55036;52.138;5.236;2023-02-01T03:20:49;7.80;80.20
68215;DHT22;55036;52.138;5.236;2023-02-01T03:23:19;7.80;80.20
68215;DHT22;55036;52.138;5.236;2023-02-01T03:25:48;7.80;80.20
68215;DHT22;55036;52.138;5.236;2023-02-01T03:28:19;7.80;80.30
68215;DHT22;55036;52.138;5.236;2023-02-01T03:30:49;7.80;80.00
68215;DHT22;55036;52.138;5.236;2023-02-01T03:33:19;7.80;79.60
68215;DHT22;55036;52.138;5.236;2023-02-01T03:41:33;7.70;80.10
68215;DHT22;55036;52.138;5.236;2023-02-01T03:44:06;7.70;80.50
68215;DHT22;55036;52.138;5.236;2023-02-01T03:46:43;7.70;80.50
68215;DHT22;55036;52.138;5.236;2023-02-01T03:49:18;7.70;80.50
68215;DHT22;55036;52.138;5.236;2023-02-01T03:51:48;7.70;80.70
68215;DHT22;55036;52.138;5.236;2023-02-01T03:54:17;7.70;80.60
68215;DHT22;55036;52.138;5.236;2023-02-01T03:56:46;7.70;81.10
68215;DHT22;55036;52.138;5.236;2023-02-01T03:59:14;7.70;81.10
68215;DHT22;55036;52.138;5.236;2023-02-01T04:01:41;7.70;81.00
68215;DHT22;55036;52.138;5.236;2023-02-01T04:04:07;7.70;81.10
68215;DHT22;55036;52.138;5.236;2023-02-01T04:06:35;7.80;80.90
68215;DHT22;55036;52.138;5.236;2023-02-01T04:09:03;7.80;80.70
68215;DHT22;55036;52.138;5.236;2023-02-01T04:11:29;7.80;80.90
68215;DHT22;55036;52.138;5.236;2023-02-01T04:13:56;7.80;80.90
68215;DHT22;55036;52.138;5.236;2023-02-01T04:16:23;7.90;80.70
68215;DHT22;55036;52.138;5.236;2023-02-01T04:18:50;7.90;80.30
68215;DHT22;55036;52.138;5.236;2023-02-01T04:21:17;7.90;80.60
68215;DHT22;55036;52.138;5.236;2023-02-01T04:23:44;7.90;80.00
68215;DHT22;55036;52.138;5.236;2023-02-01T04:26:10;7.90;80.00
68215;DHT22;55036;52.138;5.236;2023-02-01T04:28:37;7.90;80.10
68215;DHT22;55036;52.138;5.236;2023-02-01T04:31:04;7.90;80.40
68215;DHT22;55036;52.138;5.236;2023-02-01T04:33:31;7.90;79.90
68215;DHT22;55036;52.138;5.236;2023-02-01T04:35:58;8.00;79.90
68215;DHT22;55036;52.138;5.236;2023-02-01T04:38:25;7.90;80.00
68215;DHT22;55036;52.138;5.236;2023-02-01T04:40:51;8.00;79.90
68215;DHT22;55036;52.138;5.236;2023-02-01T04:43:18;7.90;80.50
68215;DHT22;55036;52.138;5.236;2023-02-01T04:45:48;7.90;80.60
68215;DHT22;55036;52.138;5.236;2023-02-01T04:48:19;7.80;80.70
68215;DHT22;55036;52.138;5.236;2023-02-01T04:50:49;7.80;80.80
68215;DHT22;55036;52.138;5.236;2023-02-01T04:53:17;7.80;80.80
68215;DHT22;55036;52.138;5.236;2023-02-01T04:55:44;7.70;80.90
68215;DHT22;55036;52.138;5.236;2023-02-01T04:58:10;7.70;80.90
68215;DHT22;55036;52.138;5.236;2023-02-01T05:00:37;7.70;81.20
68215;DHT22;55036;52.138;5.236;2023-02-01T05:03:04;7.70;80.90
68215;DHT22;55036;52.138;5.236;2023-02-01T05:05:31;7.80;80.70
68215;DHT22;55036;52.138;5.236;2023-02-01T05:07:57;7.80;80.50
68215;DHT22;55036;52.138;5.236;2023-02-01T05:10:24;7.70;80.50
68215;DHT22;55036;52.138;5.236;2023-02-01T05:12:51;7.70;80.80
68215;DHT22;55036;52.138;5.236;2023-02-01T05:15:36;7.70;80.60
68215;DHT22;55036;52.138;5.236;2023-02-01T05:18:03;7.70;80.90
68215;DHT22;55036;52.138;5.236;2023-02-01T05:20:29;7.70;80.90
68215;DHT22;55036;52.138;5.236;2023-02-01T05:22:56;7.70;81.10
68215;DHT22;55036;52.138;5.236;2023-02-01T05:25:23;7.70;81.00
68215;DHT22;55036;52.138;5.236;2023-02-01T05:27:50;7.70;81.30
68215;DHT22;55036;52.138;5.236;2023-02-01T05:30:16;7.70;81.10
68215;DHT22;55036;52.138;5.236;2023-02-01T05:32:43;7.70;81.20
68215;DHT22;55036;52.138;5.236;2023-02-01T05:35:10;7.80;81.10
68215;DHT22;55036;52.138;5.236;2023-02-01T05:37:36;7.70;81.10
68215;DHT22;55036;52.138;5.236;2023-02-01T05:40:03;7.70;81.50
68215;DHT22;55036;52.138;5.236;2023-02-01T05:42:30;7.70;81.50
68215;DHT22;55036;52.138;5.236;2023-02-01T05:44:57;7.70;81.30
68215;DHT22;55036;52.138;5.236;2023-02-01T05:47:24;7.70;81.60
68215;DHT22;55036;52.138;5.236;2023-02-01T05:49:50;7.80;81.20
68215;DHT22;55036;52.138;5.236;2023-02-01T05:52:17;7.80;81.40
68215;DHT22;55036;52.138;5.236;2023-02-01T05:54:46;7.80;81.70
68215;DHT22;55036;52.138;5.236;2023-02-01T05:57:13;7.80;81.90
68215;DHT22;55036;52.138;5.236;2023-02-01T05:59:40;7.80;81.60
68215;DHT22;55036;52.138;5.236;2023-02-01T06:02:14;7.90;81.80
68215;DHT22;55036;52.138;5.236;2023-02-01T06:04:42;7.90;81.60
68215;DHT22;55036;52.138;5.236;2023-02-01T06:07:09;7.80;81.80
68215;DHT22;55036;52.138;5.236;2023-02-01T06:09:37;7.90;81.80
68215;DHT22;55036;52.138;5.236;2023-02-01T06:12:04;7.90;82.80
68215;DHT22;55036;52.138;5.236;2023-02-01T06:14:30;7.90;81.80
68215;DHT22;55036;52.138;5.236;2023-02-01T06:16:57;7.90;81.90
68215;DHT22;55036;52.138;5.236;2023-02-01T06:19:24;7.90;82.10
68215;DHT22;55036;52.138;5.236;2023-02-01T06:21:51;7.90;82.10
68215;DHT22;55036;52.138;5.236;2023-02-01T06:24:18;7.80;82.10
68215;DHT22;55036;52.138;5.236;2023-02-01T06:26:45;7.80;82.30
68215;DHT22;55036;52.138;5.236;2023-02-01T06:29:12;7.80;82.30
68215;DHT22;55036;52.138;5.236;2023-02-01T06:31:39;7.80;82.40
68215;DHT22;55036;52.138;5.236;2023-02-01T06:34:06;7.70;82.60
68215;DHT22;55036;52.138;5.236;2023-02-01T06:36:33;7.70;82.60
68215;DHT22;55036;52.138;5.236;2023-02-01T06:39:00;7.70;82.50
68215;DHT22;55036;52.138;5.236;2023-02-01T06:41:26;7.70;82.40
68215;DHT22;55036;52.138;5.236;2023-02-01T06:43:55;7.70;82.70
68215;DHT22;55036;52.138;5.236;2023-02-01T06:46:22;7.60;82.50
68215;DHT22;55036;52.138;5.236;2023-02-01T06:48:48;7.60;82.80
68215;DHT22;55036;52.138;5.236;2023-02-01T06:51:25;7.60;82.60
68215;DHT22;55036;52.138;5.236;2023-02-01T06:53:52;7.60;83.10
68215;DHT22;55036;52.138;5.236;2023-02-01T06:56:19;7.60;83.00
68215;DHT22;55036;52.138;5.236;2023-02-01T06:58:46;7.70;82.80
68215;DHT22;55036;52.138;5.236;2023-02-01T07:01:14;7.70;83.30
68215;DHT22;55036;52.138;5.236;2023-02-01T07:03:40;7.70;83.30
68215;DHT22;55036;52.138;5.236;2023-02-01T07:06:08;7.60;83.60
68215;DHT22;55036;52.138;5.236;2023-02-01T07:08:36;7.60;83.90
68215;DHT22;55036;52.138;5.236;2023-02-01T07:11:06;7.60;84.00
68215;DHT22;55036;52.138;5.236;2023-02-01T07:13:33;7.60;83.80
68215;DHT22;55036;52.138;5.236;2023-02-01T07:16:01;7.60;83.80
68215;DHT22;55036;52.138;5.236;2023-02-01T07:18:28;7.60;83.70
68215;DHT22;55036;52.138;5.236;2023-02-01T07:20:56;7.70;83.40
68215;DHT22;55036;52.138;5.236;2023-02-01T07:23:23;7.70;84.30
68215;DHT22;55036;52.138;5.236;2023-02-01T07:26:01;7.80;83.30
68215;DHT22;55036;52.138;5.236;2023-02-01T07:28:31;7.70;83.30
68215;DHT22;55036;52.138;5.236;2023-02-01T07:31:21;7.70;83.30
68215;DHT22;55036;52.138;5.236;2023-02-01T07:33:49;7.80;83.00
68215;DHT22;55036;52.138;5.236;2023-02-01T07:36:19;7.70;83.40
68215;DHT22;55036;52.138;5.236;2023-02-01T07:38:46;7.70;83.20
68215;DHT22;55036;52.138;5.236;2023-02-01T07:41:17;7.70;83.20
68215;DHT22;55036;52.138;5.236;2023-02-01T07:43:44;7.70;83.20
68215;DHT22;55036;52.138;5.236;2023-02-01T07:46:11;7.70;83.10
68215;DHT22;55036;52.138;5.236;2023-02-01T07:48:38;7.70;83.40
68215;DHT22;55036;52.138;5.236;2023-02-01T07:51:15;7.70;83.20
68215;DHT22;55036;52.138;5.236;2023-02-01T07:53:43;7.70;83.20
68215;DHT22;55036;52.138;5.236;2023-02-01T07:56:15;7.70;83.10
68215;DHT22;55036;52.138;5.236;2023-02-01T07:58:42;7.70;83.40
68215;DHT22;55036;52.138;5.236;2023-02-01T08:01:18;7.70;83.80
68215;DHT22;55036;52.138;5.236;2023-02-01T08:03:56;7.70;83.70
68215;DHT22;55036;52.138;5.236;2023-02-01T08:06:24;7.80;83.40
68215;DHT22;55036;52.138;5.236;2023-02-01T08:08:52;7.80;83.30
68215;DHT22;55036;52.138;5.236;2023-02-01T08:11:20;7.80;83.40
68215;DHT22;55036;52.138;5.236;2023-02-01T08:13:47;7.80;83.40
68215;DHT22;55036;52.138;5.236;2023-02-01T08:16:16;7.70;83.50
68215;DHT22;55036;52.138;5.236;2023-02-01T08:18:43;7.70;83.70
68215;DHT22;55036;52.138;5.236;2023-02-01T08:21:13;7.70;83.50
68215;DHT22;55036;52.138;5.236;2023-02-01T08:23:41;7.80;83.50
68215;DHT22;55036;52.138;5.236;2023-02-01T08:28:40;7.80;83.50
68215;DHT22;55036;52.138;5.236;2023-02-01T08:31:15;7.80;83.40
68215;DHT22;55036;52.138;5.236;2023-02-01T08:33:43;7.80;83.90
68215;DHT22;55036;52.138;5.236;2023-02-01T08:36:11;7.90;83.50
68215;DHT22;55036;52.138;5.236;2023-02-01T08:38:39;8.00;83.50
68215;DHT22;55036;52.138;5.236;2023-02-01T08:41:10;8.00;82.60
68215;DHT22;55036;52.138;5.236;2023-02-01T08:43:37;7.90;83.20
68215;DHT22;55036;52.138;5.236;2023-02-01T08:46:04;8.00;83.20
68215;DHT22;55036;52.138;5.236;2023-02-01T08:48:32;8.00;83.30
68215;DHT22;55036;52.138;5.236;2023-02-01T08:51:04;8.10;83.10
68215;DHT22;55036;52.138;5.236;2023-02-01T08:53:31;8.10;83.30
68215;DHT22;55036;52.138;5.236;2023-02-01T08:55:58;8.30;83.10
68215;DHT22;55036;52.138;5.236;2023-02-01T08:58:26;8.30;82.60
68215;DHT22;55036;52.138;5.236;2023-02-01T09:00:52;8.30;83.00
68215;DHT22;55036;52.138;5.236;2023-02-01T09:03:19;8.40;82.90
68215;DHT22;55036;52.138;5.236;2023-02-01T09:05:46;8.40;82.30
68215;DHT22;55036;52.138;5.236;2023-02-01T09:08:16;8.50;82.20
68215;DHT22;55036;52.138;5.236;2023-02-01T09:10:42;8.50;81.50
68215;DHT22;55036;52.138;5.236;2023-02-01T09:13:09;8.70;80.90
68215;DHT22;55036;52.138;5.236;2023-02-01T09:15:37;8.80;81.20
68215;DHT22;55036;52.138;5.236;2023-02-01T09:18:04;8.90;81.50
68215;DHT22;55036;52.138;5.236;2023-02-01T09:20:30;9.00;80.30
68215;DHT22;55036;52.138;5.236;2023-02-01T09:22:57;9.10;80.40
68215;DHT22;55036;52.138;5.236;2023-02-01T09:25:24;9.20;78.70
68215;DHT22;55036;52.138;5.236;2023-02-01T09:27:51;9.20;79.30
68215;DHT22;55036;52.138;5.236;2023-02-01T09:30:17;9.30;78.10
68215;DHT22;55036;52.138;5.236;2023-02-01T09:32:44;9.20;78.50
68215;DHT22;55036;52.138;5.236;2023-02-01T09:35:11;9.10;78.60
68215;DHT22;55036;52.138;5.236;2023-02-01T09:37:37;9.10;79.00
68215;DHT22;55036;52.138;5.236;2023-02-01T09:40:04;9.10;78.70
68215;DHT22;55036;52.138;5.236;2023-02-01T09:42:57;9.00;78.60
68215;DHT22;55036;52.138;5.236;2023-02-01T09:48:16;8.90;79.70
68215;DHT22;55036;52.138;5.236;2023-02-01T09:50:55;9.00;79.50
68215;DHT22;55036;52.138;5.236;2023-02-01T09:53:29;9.00;79.00
68215;DHT22;55036;52.138;5.236;2023-02-01T09:56:21;8.90;79.80
68215;DHT22;55036;52.138;5.236;2023-02-01T09:58:58;8.80;79.90
68215;DHT22;55036;52.138;5.236;2023-02-01T10:01:28;8.80;80.10
68215;DHT22;55036;52.138;5.236;2023-02-01T10:04:03;8.70;79.70
68215;DHT22;55036;52.138;5.236;2023-02-01T10:06:43;8.60;80.50
68215;DHT22;55036;52.138;5.236;2023-02-01T10:17:25;8.80;82.50
68215;DHT22;55036;52.138;5.236;2023-02-01T10:20:22;8.80;83.10
68215;DHT22;55036;52.138;5.236;2023-02-01T10:23:07;8.60;83.00
68215;DHT22;55036;52.138;5.236;2023-02-01T10:28:52;8.50;86.50
68215;DHT22;55036;52.138;5.236;2023-02-01T10:31:22;8.40;85.80
68215;DHT22;55036;52.138;5.236;2023-02-01T10:33:52;8.50;85.50
68215;DHT22;55036;52.138;5.236;2023-02-01T10:36:29;8.60;85.50
68215;DHT22;55036;52.138;5.236;2023-02-01T10:39:01;8.60;84.50
68215;DHT22;55036;52.138;5.236;2023-02-01T10:41:33;8.50;84.80
68215;DHT22;55036;52.138;5.236;2023-02-01T10:44:03;8.60;84.00
68215;DHT22;55036;52.138;5.236;2023-02-01T10:46:31;8.50;83.50
68215;DHT22;55036;52.138;5.236;2023-02-01T10:49:03;8.60;84.60
68215;DHT22;55036;52.138;5.236;2023-02-01T10:52:05;8.80;82.10
68215;DHT22;55036;52.138;5.236;2023-02-01T10:54:38;8.80;83.10
68215;DHT22;55036;52.138;5.236;2023-02-01T10:57:10;8.70;83.30
68215;DHT22;55036;52.138;5.236;2023-02-01T10:59:36;8.90;82.90
68215;DHT22;55036;52.138;5.236;2023-02-01T11:04:50;9.00;80.60
68215;DHT22;55036;52.138;5.236;2023-02-01T11:07:22;9.00;81.20
68215;DHT22;55036;52.138;5.236;2023-02-01T11:09:53;9.10;81.20
68215;DHT22;55036;52.138;5.236;2023-02-01T11:12:35;9.00;81.40
68215;DHT22;55036;52.138;5.236;2023-02-01T11:17:46;9.00;82.70
68215;DHT22;55036;52.138;5.236;2023-02-01T11:20:18;8.90;82.50
68215;DHT22;55036;52.138;5.236;2023-02-01T11:22:47;9.00;82.90
68215;DHT22;55036;52.138;5.236;2023-02-01T11:25:16;9.10;82.30
68215;DHT22;55036;52.138;5.236;2023-02-01T11:27:44;9.10;81.00
68215;DHT22;55036;52.138;5.236;2023-02-01T11:30:32;9.00;81.70
68215;DHT22;55036;52.138;5.236;2023-02-01T11:33:00;9.10;82.50
68215;DHT22;55036;52.138;5.236;2023-02-01T11:35:28;9.10;81.50
68215;DHT22;55036;52.138;5.236;2023-02-01T11:37:58;9.20;82.20
68215;DHT22;55036;52.138;5.236;2023-02-01T11:40:36;9.20;81.70
68215;DHT22;55036;52.138;5.236;2023-02-01T11:43:23;9.20;81.70
68215;DHT22;55036;52.138;5.236;2023-02-01T11:46:02;9.30;81.50
68215;DHT22;55036;52.138;5.236;2023-02-01T11:48:32;9.40;81.60
68215;DHT22;55036;52.138;5.236;2023-02-01T11:54:02;9.60;81.10
68215;DHT22;55036;52.138;5.236;2023-02-01T11:56:44;9.50;79.90
68215;DHT22;55036;52.138;5.236;2023-02-01T11:59:32;9.70;79.40
68215;DHT22;55036;52.138;5.236;2023-02-01T12:05:27;9.50;79.50
68215;DHT22;55036;52.138;5.236;2023-02-01T12:08:00;9.40;78.90
68215;DHT22;55036;52.138;5.236;2023-02-01T12:24:50;9.40;78.50
68215;DHT22;55036;52.138;5.236;2023-02-01T12:38:44;9.40;78.90
68215;DHT22;55036;52.138;5.236;2023-02-01T12:47:14;9.40;78.60
68215;DHT22;55036;52.138;5.236;2023-02-01T12:49:47;9.40;79.00
68215;DHT22;55036;52.138;5.236;2023-02-01T12:52:38;9.40;79.10
68215;DHT22;55036;52.138;5.236;2023-02-01T12:57:45;9.50;79.40
68215;DHT22;55036;52.138;5.236;2023-02-01T13:00:19;9.50;79.30
68215;DHT22;55036;52.138;5.236;2023-02-01T13:05:34;9.40;79.30
68215;DHT22;55036;52.138;5.236;2023-02-01T13:08:08;9.40;79.50
68215;DHT22;55036;52.138;5.236;2023-02-01T13:13:35;9.30;79.80
68215;DHT22;55036;52.138;5.236;2023-02-01T13:16:28;9.30;79.90
68215;DHT22;55036;52.138;5.236;2023-02-01T13:21:59;9.40;79.80
68215;DHT22;55036;52.138;5.236;2023-02-01T13:27:14;9.40;79.70
68215;DHT22;55036;52.138;5.236;2023-02-01T13:32:55;9.40;79.60
68215;DHT22;55036;52.138;5.236;2023-02-01T13:36:14;9.50;79.50
68215;DHT22;55036;52.138;5.236;2023-02-01T13:41:50;9.40;80.30
68215;DHT22;55036;52.138;5.236;2023-02-01T13:46:58;9.50;80.00
68215;DHT22;55036;52.138;5.236;2023-02-01T13:49:32;9.50;79.90
68215;DHT22;55036;52.138;5.236;2023-02-01T13:52:04;9.50;79.90
68215;DHT22;55036;52.138;5.236;2023-02-01T13:57:02;9.60;79.80
68215;DHT22;55036;52.138;5.236;2023-02-01T14:10:51;9.50;80.70
68215;DHT22;55036;52.138;5.236;2023-02-01T14:13:38;9.50;80.70
68215;DHT22;55036;52.138;5.236;2023-02-01T14:24:11;9.50;80.70
68215;DHT22;55036;52.138;5.236;2023-02-01T14:26:46;9.50;80.70
68215;DHT22;55036;52.138;5.236;2023-02-01T14:32:00;9.50;81.20
68215;DHT22;55036;52.138;5.236;2023-02-01T14:53:17;9.50;81.80
68215;DHT22;55036;52.138;5.236;2023-02-01T14:58:57;9.60;81.90
68215;DHT22;55036;52.138;5.236;2023-02-01T15:01:33;9.50;83.50
68215;DHT22;55036;52.138;5.236;2023-02-01T15:04:11;9.40;83.50
68215;DHT22;55036;52.138;5.236;2023-02-01T15:06:55;9.40;83.40
68215;DHT22;55036;52.138;5.236;2023-02-01T15:09:29;9.40;83.60
68215;DHT22;55036;52.138;5.236;2023-02-01T15:12:04;9.40;83.20
68215;DHT22;55036;52.138;5.236;2023-02-01T15:14:40;9.40;83.20
68215;DHT22;55036;52.138;5.236;2023-02-01T15:17:19;9.50;83.10
68215;DHT22;55036;52.138;5.236;2023-02-01T15:19:58;9.50;83.20
68215;DHT22;55036;52.138;5.236;2023-02-01T15:22:27;9.50;83.10
68215;DHT22;55036;52.138;5.236;2023-02-01T15:24:56;9.40;83.10
68215;DHT22;55036;52.138;5.236;2023-02-01T15:27:23;9.50;83.20
68215;DHT22;55036;52.138;5.236;2023-02-01T15:29:50;9.50;83.00
68215;DHT22;55036;52.138;5.236;2023-02-01T15:32:34;9.40;82.70
68215;DHT22;55036;52.138;5.236;2023-02-01T15:35:01;9.50;82.70
68215;DHT22;55036;52.138;5.236;2023-02-01T15:37:28;9.50;82.50
68215;DHT22;55036;52.138;5.236;2023-02-01T15:42:54;9.60;82.50
68215;DHT22;55036;52.138;5.236;2023-02-01T15:45:26;9.60;82.20
68215;DHT22;55036;52.138;5.236;2023-02-01T15:47:55;9.60;82.00
68215;DHT22;55036;52.138;5.236;2023-02-01T15:50:22;9.50;82.60
68215;DHT22;55036;52.138;5.236;2023-02-01T15:52:53;9.50;82.20
68215;DHT22;55036;52.138;5.236;2023-02-01T15:55:25;9.40;82.60
68215;DHT22;55036;52.138;5.236;2023-02-01T15:57:53;9.40;82.40
68215;DHT22;55036;52.138;5.236;2023-02-01T16:00:26;9.50;82.70
68215;DHT22;55036;52.138;5.236;2023-02-01T16:02:58;9.50;82.60
68215;DHT22;55036;52.138;5.236;2023-02-01T16:05:35;9.60;82.30
68215;DHT22;55036;52.138;5.236;2023-02-01T16:08:28;9.60;82.00
68215;DHT22;55036;52.138;5.236;2023-02-01T16:11:12;9.60;81.80
68215;DHT22;55036;52.138;5.236;2023-02-01T16:13:40;9.50;82.40
68215;DHT22;55036;52.138;5.236;2023-02-01T16:16:08;9.50;82.60
68215;DHT22;55036;52.138;5.236;2023-02-01T16:18:40;9.50;82.50
68215;DHT22;55036;52.138;5.236;2023-02-01T16:21:08;9.60;82.20
68215;DHT22;55036;52.138;5.236;2023-02-01T16:23:35;9.60;82.40
68215;DHT22;55036;52.138;5.236;2023-02-01T16:26:03;9.50;82.30
68215;DHT22;55036;52.138;5.236;2023-02-01T16:28:30;9.50;82.60
68215;DHT22;55036;52.138;5.236;2023-02-01T16:30:57;9.50;82.50
68215;DHT22;55036;52.138;5.236;2023-02-01T16:33:25;9.60;82.20
68215;DHT22;55036;52.138;5.236;2023-02-01T16:35:55;9.60;82.30
68215;DHT22;55036;52.138;5.236;2023-02-01T16:38:23;9.50;82.70
68215;DHT22;55036;52.138;5.236;2023-02-01T16:40:50;9.60;82.50
68215;DHT22;55036;52.138;5.236;2023-02-01T16:43:24;9.60;82.50
68215;DHT22;55036;52.138;5.236;2023-02-01T16:45:53;9.60;83.00
68215;DHT22;55036;52.138;5.236;2023-02-01T16:48:25;9.60;82.80
68215;DHT22;55036;52.138;5.236;2023-02-01T16:51:01;9.50;83.30
68215;DHT22;55036;52.138;5.236;2023-02-01T16:53:30;9.60;83.10
68215;DHT22;55036;52.138;5.236;2023-02-01T16:56:04;9.60;83.20
68215;DHT22;55036;52.138;5.236;2023-02-01T16:58:32;9.50;84.70
68215;DHT22;55036;52.138;5.236;2023-02-01T17:00:59;9.40;84.20
68215;DHT22;55036;52.138;5.236;2023-02-01T17:03:26;9.60;83.70
68215;DHT22;55036;52.138;5.236;2023-02-01T17:05:54;9.60;83.70
68215;DHT22;55036;52.138;5.236;2023-02-01T17:08:28;9.60;83.90
68215;DHT22;55036;52.138;5.236;2023-02-01T17:10:58;9.60;83.60
68215;DHT22;55036;52.138;5.236;2023-02-01T17:13:25;9.50;84.20
68215;DHT22;55036;52.138;5.236;2023-02-01T17:16:04;9.50;84.40
68215;DHT22;55036;52.138;5.236;2023-02-01T17:18:34;9.60;84.00
68215;DHT22;55036;52.138;5.236;2023-02-01T17:21:02;9.60;83.90
68215;DHT22;55036;52.138;5.236;2023-02-01T17:23:31;9.60;83.90
68215;DHT22;55036;52.138;5.236;2023-02-01T17:25:58;9.60;84.20
68215;DHT22;55036;52.138;5.236;2023-02-01T17:28:25;9.60;84.00
68215;DHT22;55036;52.138;5.236;2023-02-01T17:30:51;9.60;83.90
68215;DHT22;55036;52.138;5.236;2023-02-01T17:33:26;9.70;83.80
68215;DHT22;55036;52.138;5.236;2023-02-01T17:36:03;9.60;84.00
68215;DHT22;55036;52.138;5.236;2023-02-01T17:38:30;9.70;83.60
68215;DHT22;55036;52.138;5.236;2023-02-01T17:40:57;9.70;83.50
68215;DHT22;55036;52.138;5.236;2023-02-01T17:43:25;9.70;84.80
68215;DHT22;55036;52.138;5.236;2023-02-01T17:45:55;9.60;84.20
68215;DHT22;55036;52.138;5.236;2023-02-01T17:48:23;9.60;84.50
68215;DHT22;55036;52.138;5.236;2023-02-01T17:50:52;9.60;84.30
68215;DHT22;55036;52.138;5.236;2023-02-01T17:53:28;9.60;84.30
68215;DHT22;55036;52.138;5.236;2023-02-01T17:55:55;9.60;84.30
68215;DHT22;55036;52.138;5.236;2023-02-01T17:58:24;9.70;84.20
68215;DHT22;55036;52.138;5.236;2023-02-01T18:00:52;9.70;84.30
68215;DHT22;55036;52.138;5.236;2023-02-01T18:03:28;9.70;84.30
68215;DHT22;55036;52.138;5.236;2023-02-01T18:05:56;9.60;84.30
68215;DHT22;55036;52.138;5.236;2023-02-01T18:08:26;9.70;84.40
68215;DHT22;55036;52.138;5.236;2023-02-01T18:10:58;9.70;84.10
68215;DHT22;55036;52.138;5.236;2023-02-01T18:13:30;9.70;84.30
68215;DHT22;55036;52.138;5.236;2023-02-01T18:15:57;9.70;84.40
68215;DHT22;55036;52.138;5.236;2023-02-01T18:18:25;9.60;84.70
68215;DHT22;55036;52.138;5.236;2023-02-01T18:20:52;9.60;84.70
68215;DHT22;55036;52.138;5.236;2023-02-01T18:23:20;9.60;84.80
68215;DHT22;55036;52.138;5.236;2023-02-01T18:25:48;9.70;84.80
68215;DHT22;55036;52.138;5.236;2023-02-01T18:28:18;9.70;84.80
68215;DHT22;55036;52.138;5.236;2023-02-01T18:30:47;9.70;84.30
68215;DHT22;55036;52.138;5.236;2023-02-01T18:33:17;9.80;84.20
68215;DHT22;55036;52.138;5.236;2023-02-01T18:35:45;9.80;84.10
68215;DHT22;55036;52.138;5.236;2023-02-01T18:38:11;9.80;84.00
68215;DHT22;55036;52.138;5.236;2023-02-01T18:40:53;9.80;84.30
68215;DHT22;55036;52.138;5.236;2023-02-01T18:43:20;9.80;83.90
68215;DHT22;55036;52.138;5.236;2023-02-01T18:45:48;9.80;84.10
68215;DHT22;55036;52.138;5.236;2023-02-01T18:48:16;9.70;84.60
68215;DHT22;55036;52.138;5.236;2023-02-01T18:50:45;9.70;84.90
68215;DHT22;55036;52.138;5.236;2023-02-01T18:53:17;9.60;84.80